createdAt,value
2018-08-10T00:00:25.425Z,73.35
2018-08-10T00:02:53.912Z,73.57
2018-08-10T00:05:22.410Z,73.74
2018-08-10T00:07:51.664Z,73.50
2018-08-10T00:10:20.161Z,73.05
2018-08-10T00:12:48.602Z,73.14
2018-08-10T00:15:17.036Z,73.13
2018-08-10T00:17:45.533Z,71.75
2018-08-10T00:20:15.486Z,70.96
2018-08-10T00:22:44.390Z,70.03
2018-08-10T00:25:17.499Z,70.80
2018-08-10T00:27:45.950Z,71.32
2018-08-10T00:30:15.990Z,72.29
2018-08-10T00:32:45.910Z,71.88
2018-08-10T00:35:14.400Z,71.97
2018-08-10T00:37:43.580Z,72.78
2018-08-10T00:40:17.607Z,72.06
2018-08-10T00:42:46.167Z,72.59
2018-08-10T00:45:15.479Z,72.18
2018-08-10T00:47:44.349Z,72.66
2018-08-10T00:50:14.335Z,72.64
2018-08-10T00:52:43.538Z,71.96
2018-08-10T00:55:13.629Z,72.72
2018-08-10T00:57:42.447Z,72.21
2018-08-10T01:00:12.751Z,71.79
2018-08-10T01:02:41.436Z,72.50
2018-08-10T01:05:10.687Z,71.88
2018-08-10T01:07:39.181Z,72.98
2018-08-10T01:10:10.181Z,73.24
2018-08-10T01:12:39.295Z,72.65
2018-08-10T01:15:09.567Z,72.47
2018-08-10T01:17:38.373Z,72.06
2018-08-10T01:20:09.871Z,72.99
2018-08-10T01:22:42.336Z,72.42
2018-08-10T01:25:11.872Z,72.32
2018-08-10T01:27:45.615Z,72.15
2018-08-10T01:30:14.868Z,72.67
2018-08-10T01:32:43.268Z,72.43
2018-08-10T01:35:11.657Z,72.61
2018-08-10T01:37:40.067Z,72.29
2018-08-10T01:40:09.664Z,72.43
2018-08-10T01:42:38.131Z,72.93
2018-08-10T01:45:07.444Z,72.49
2018-08-10T01:47:36.671Z,72.78
2018-08-10T01:50:05.856Z,72.57
2018-08-10T01:52:34.341Z,73.26
2018-08-10T01:55:02.913Z,73.48
2018-08-10T01:57:31.457Z,73.05
2018-08-10T01:59:59.911Z,72.54
2018-08-10T02:02:28.517Z,72.70
2018-08-10T02:04:57.008Z,72.21
2018-08-10T02:07:25.467Z,72.90
2018-08-10T02:09:53.916Z,72.52
2018-08-10T02:12:22.390Z,72.50
2018-08-10T02:14:50.932Z,72.39
2018-08-10T02:17:19.388Z,72.61
2018-08-10T02:19:47.831Z,71.97
2018-08-10T02:22:16.240Z,73.48
2018-08-10T02:24:44.817Z,72.68
2018-08-10T02:27:13.234Z,71.94
2018-08-10T02:29:41.619Z,73.06
2018-08-10T02:32:10.330Z,72.90
2018-08-10T02:34:38.692Z,72.74
2018-08-10T02:37:07.240Z,73.34
2018-08-10T02:39:35.637Z,72.41
2018-08-10T02:42:04.075Z,72.81
2018-08-10T02:44:32.520Z,72.33
2018-08-10T02:47:00.959Z,73.35
2018-08-10T02:49:29.397Z,73.46
2018-08-10T02:51:57.929Z,72.58
2018-08-10T02:54:26.331Z,72.87
2018-08-10T02:56:54.847Z,72.45
2018-08-10T02:59:23.277Z,72.78
2018-08-10T03:01:51.667Z,72.62
2018-08-10T03:04:20.557Z,72.53
2018-08-10T03:06:49.100Z,72.68
2018-08-10T03:09:17.488Z,73.32
2018-08-10T03:11:45.928Z,73.57
2018-08-10T03:14:14.321Z,73.19
2018-08-10T03:16:42.739Z,73.12
2018-08-10T03:19:11.189Z,72.55
2018-08-10T03:21:39.615Z,73.27
2018-08-10T03:24:08.085Z,72.72
2018-08-10T03:26:36.570Z,73.03
2018-08-10T03:29:05.072Z,72.27
2018-08-10T03:31:33.469Z,72.14
2018-08-10T03:34:01.901Z,73.38
2018-08-10T03:36:30.332Z,71.87
2018-08-10T03:38:58.733Z,72.70
2018-08-10T03:41:27.157Z,73.30
2018-08-10T03:43:55.604Z,73.27
2018-08-10T03:46:24.987Z,73.73
2018-08-10T03:48:53.384Z,73.45
2018-08-10T03:51:21.795Z,73.28
2018-08-10T03:53:50.228Z,73.54
2018-08-10T03:56:18.696Z,74.46
2018-08-10T03:58:47.089Z,74.85
2018-08-10T04:01:15.544Z,73.28
2018-08-10T04:03:44.013Z,73.79
2018-08-10T04:06:12.472Z,74.25
2018-08-10T04:08:40.971Z,74.28
2018-08-10T04:11:09.446Z,73.65
2018-08-10T04:13:37.900Z,74.54
2018-08-10T04:16:06.458Z,74.65
2018-08-10T04:18:35.150Z,74.85
2018-08-10T04:21:03.807Z,74.92
2018-08-10T04:23:32.243Z,74.56
2018-08-10T04:26:00.998Z,74.90
2018-08-10T04:28:29.456Z,75.36
2018-08-10T04:30:58.031Z,74.41
2018-08-10T04:33:26.652Z,74.78
2018-08-10T04:35:56.150Z,74.67
2018-08-10T04:38:24.620Z,75.43
2018-08-10T04:40:53.057Z,75.08
2018-08-10T04:43:21.496Z,75.78
2018-08-10T04:45:49.921Z,75.76
2018-08-10T04:48:18.381Z,75.53
2018-08-10T04:50:46.802Z,76.37
2018-08-10T04:53:15.272Z,75.27
2018-08-10T04:55:43.718Z,76.25
2018-08-10T04:58:12.227Z,76.06
2018-08-10T05:00:40.648Z,75.42
2018-08-10T05:03:09.133Z,75.77
2018-08-10T05:05:37.605Z,75.11
2018-08-10T05:08:06.061Z,75.13
2018-08-10T05:10:34.550Z,75.10
2018-08-10T05:13:03.016Z,74.81
2018-08-10T05:15:31.525Z,74.65
2018-08-10T05:17:59.972Z,74.83
2018-08-10T05:20:28.479Z,74.40
2018-08-10T05:22:56.903Z,75.49
2018-08-10T05:25:25.367Z,74.95
2018-08-10T05:27:53.802Z,74.62
2018-08-10T05:30:22.180Z,74.21
2018-08-10T05:32:50.589Z,74.89
2018-08-10T05:35:18.989Z,74.30
2018-08-10T05:37:48.011Z,73.98
2018-08-10T05:40:16.508Z,74.07
2018-08-10T05:42:44.942Z,73.47
2018-08-10T05:45:14.336Z,73.80
2018-08-10T05:47:42.721Z,74.15
2018-08-10T05:50:11.544Z,74.52
2018-08-10T05:52:40.119Z,74.01
2018-08-10T05:55:08.847Z,74.12
2018-08-10T05:57:37.413Z,73.97
2018-08-10T06:00:06.718Z,73.72
2018-08-10T06:02:35.117Z,72.99
2018-08-10T06:05:03.670Z,73.69
2018-08-10T06:07:32.073Z,72.87
2018-08-10T06:10:00.483Z,73.24
2018-08-10T06:12:30.023Z,73.08
2018-08-10T06:14:58.513Z,71.87
2018-08-10T06:17:26.998Z,71.91
2018-08-10T06:19:55.560Z,71.97
2018-08-10T06:22:23.922Z,71.40
2018-08-10T06:24:52.419Z,71.77
2018-08-10T06:27:20.859Z,71.82
2018-08-10T06:29:49.918Z,71.48
2018-08-10T06:32:18.295Z,71.92
2018-08-10T06:34:46.696Z,71.64
2018-08-10T06:37:15.103Z,71.09
2018-08-10T06:39:43.538Z,69.95
2018-08-10T06:42:11.995Z,70.84
2018-08-10T06:44:40.512Z,70.02
2018-08-10T06:47:08.886Z,70.70
2018-08-10T06:49:37.279Z,70.74
2018-08-10T06:52:05.793Z,71.13
2018-08-10T06:54:34.292Z,71.36
2018-08-10T06:57:02.785Z,70.83
2018-08-10T06:59:31.189Z,71.57
2018-08-10T07:01:59.595Z,70.81
2018-08-10T07:04:27.988Z,71.34
2018-08-10T07:06:56.408Z,70.75
2018-08-10T07:09:24.806Z,70.80
2018-08-10T07:11:53.220Z,70.21
2018-08-10T07:14:21.640Z,69.91
2018-08-10T07:16:50.052Z,69.82
2018-08-10T07:19:18.502Z,69.95
2018-08-10T07:21:46.963Z,70.10
2018-08-10T07:24:15.408Z,69.30
2018-08-10T07:26:43.859Z,70.06
2018-08-10T07:29:12.284Z,69.88
2018-08-10T07:31:40.731Z,70.06
2018-08-10T07:34:09.188Z,71.35
2018-08-10T07:36:37.604Z,70.01
2018-08-10T07:39:09.180Z,69.96
2018-08-10T07:41:37.634Z,68.33
2018-08-10T07:44:06.355Z,68.03
2018-08-10T07:46:34.803Z,67.57
2018-08-10T07:49:03.231Z,66.76
2018-08-10T07:51:31.727Z,66.63
2018-08-10T07:54:00.212Z,67.37
2018-08-10T07:56:28.958Z,66.01
2018-08-10T07:58:57.435Z,65.28
2018-08-10T08:01:25.881Z,65.52
2018-08-10T08:03:54.983Z,64.60
2018-08-10T08:06:23.741Z,64.71
2018-08-10T08:08:52.188Z,65.94
2018-08-10T08:11:20.640Z,64.57
2018-08-10T08:13:49.235Z,65.15
2018-08-10T08:16:17.568Z,65.30
2018-08-10T08:18:47.062Z,64.89
2018-08-10T08:21:16.256Z,63.37
2018-08-10T08:23:44.693Z,62.84
2018-08-10T08:26:13.182Z,61.13
2018-08-10T08:28:41.674Z,61.87
2018-08-10T08:31:10.129Z,62.10
2018-08-10T08:33:49.652Z,61.16
2018-08-10T08:36:18.145Z,61.26
2018-08-10T08:40:14.932Z,61.80
2018-08-10T08:42:44.810Z,61.50
2018-08-10T08:46:16.887Z,60.46
2018-08-10T08:48:47.157Z,60.00
2018-08-10T08:51:17.240Z,58.84
2018-08-10T08:53:45.707Z,58.77
2018-08-10T08:56:17.465Z,58.52
2018-08-10T08:58:47.322Z,57.47
2018-08-10T09:01:16.357Z,58.32
2018-08-10T09:04:37.000Z,57.30
2018-08-10T09:07:05.452Z,55.78
2018-08-10T09:09:39.468Z,57.31
2018-08-10T09:12:07.924Z,57.92
2018-08-10T09:14:41.811Z,57.48
2018-08-10T09:17:10.930Z,57.67
2018-08-10T09:19:40.382Z,57.28
2018-08-10T09:22:08.964Z,56.54
2018-08-10T09:24:37.431Z,55.96
2018-08-10T09:27:06.005Z,55.74
2018-08-10T09:29:35.027Z,55.31
2018-08-10T09:32:03.851Z,55.07
2018-08-10T09:34:32.368Z,55.19
2018-08-10T09:37:01.372Z,54.70
2018-08-10T09:39:30.014Z,53.30
2018-08-10T09:42:00.031Z,54.11
2018-08-10T09:44:28.843Z,52.94
2018-08-10T09:46:57.296Z,54.34
2018-08-10T09:49:27.104Z,53.28
2018-08-10T09:51:55.572Z,53.00
2018-08-10T09:54:23.983Z,53.34
2018-08-10T09:56:52.471Z,53.66
2018-08-10T09:59:20.925Z,51.65
2018-08-10T10:01:54.665Z,51.83
2018-08-10T10:04:23.068Z,50.79
2018-08-10T10:06:51.540Z,51.68
2018-08-10T10:09:19.918Z,51.26
2018-08-10T10:11:48.932Z,51.12
2018-08-10T10:14:17.352Z,51.35
2018-08-10T10:16:45.833Z,49.42
2018-08-10T10:19:14.326Z,50.00
2018-08-10T10:21:42.785Z,49.70
2018-08-10T10:24:11.230Z,49.52
2018-08-10T10:26:40.028Z,49.89
2018-08-10T10:29:08.534Z,48.22
2018-08-10T10:31:36.988Z,48.45
2018-08-10T10:34:05.529Z,47.42
2018-08-10T10:36:33.940Z,47.43
2018-08-10T10:39:02.460Z,46.23
2018-08-10T10:41:30.990Z,44.71
2018-08-10T10:43:59.344Z,44.20
2018-08-10T10:46:27.761Z,45.93
2018-08-10T10:48:56.187Z,45.42
2018-08-10T10:51:24.634Z,44.88
2018-08-10T10:53:53.052Z,45.58
2018-08-10T10:56:21.554Z,44.63
2018-08-10T10:58:49.955Z,44.24
2018-08-10T11:01:18.341Z,44.74
2018-08-10T11:03:46.784Z,44.29
2018-08-10T11:06:15.255Z,44.00
2018-08-10T11:08:43.730Z,45.25
2018-08-10T11:11:12.177Z,42.81
2018-08-10T11:13:40.664Z,44.12
2018-08-10T11:16:09.162Z,44.70
2018-08-10T11:18:37.594Z,44.50
2018-08-10T11:21:07.037Z,43.94
2018-08-10T11:23:35.453Z,44.21
2018-08-10T11:26:04.041Z,43.46
2018-08-10T11:28:32.417Z,43.35
2018-08-10T11:31:00.831Z,44.08
2018-08-10T11:33:29.288Z,44.60
2018-08-10T11:35:57.695Z,43.31
2018-08-10T11:38:26.193Z,43.13
2018-08-10T11:40:54.667Z,40.85
2018-08-10T11:43:23.131Z,40.25
2018-08-10T11:45:51.562Z,41.54
2018-08-10T11:48:20.076Z,41.23
2018-08-10T11:50:48.511Z,41.72
2018-08-10T11:53:16.971Z,43.16
2018-08-10T11:55:45.428Z,42.70
2018-08-10T11:58:13.935Z,42.86
2018-08-10T12:00:42.456Z,43.83
2018-08-10T12:03:10.916Z,41.45
2018-08-10T12:05:39.351Z,41.37
2018-08-10T12:08:07.801Z,42.24
2018-08-10T12:10:36.222Z,42.62
2018-08-10T12:13:04.708Z,41.58
2018-08-10T12:15:33.149Z,42.99
2018-08-10T12:18:01.608Z,42.14
2018-08-10T12:20:30.077Z,42.14
2018-08-10T12:22:58.499Z,42.46
2018-08-10T12:25:27.010Z,40.61
2018-08-10T12:27:55.424Z,38.56
2018-08-10T12:30:23.957Z,38.27
2018-08-10T12:32:52.548Z,37.71
2018-08-10T12:35:20.997Z,37.56
2018-08-10T12:37:49.434Z,36.79
2018-08-10T12:40:17.856Z,36.52
2018-08-10T12:42:46.348Z,36.72
2018-08-10T12:45:14.819Z,36.58
2018-08-10T12:47:43.374Z,37.92
2018-08-10T12:50:11.758Z,36.47
2018-08-10T12:52:40.360Z,35.43
2018-08-10T12:55:09.074Z,34.52
2018-08-10T12:57:38.208Z,35.98
2018-08-10T13:00:09.193Z,33.64
2018-08-10T13:02:37.625Z,32.94
2018-08-10T13:05:06.995Z,33.47
2018-08-10T13:07:35.523Z,35.75
2018-08-10T13:10:04.737Z,35.87
2018-08-10T13:12:33.305Z,36.30
2018-08-10T13:15:01.691Z,35.57
2018-08-10T13:17:30.173Z,34.46
2018-08-10T13:19:58.565Z,33.20
2018-08-10T13:22:27.092Z,33.09
2018-08-10T13:24:55.503Z,35.01
2018-08-10T13:27:23.996Z,33.42
2018-08-10T13:29:52.473Z,35.51
2018-08-10T13:32:20.934Z,33.02
2018-08-10T13:34:49.761Z,32.22
2018-08-10T13:37:18.252Z,31.96
2018-08-10T13:39:46.723Z,31.96
2018-08-10T13:42:15.228Z,32.75
2018-08-10T13:44:43.627Z,32.52
2018-08-10T13:47:12.226Z,31.25
2018-08-10T13:49:40.704Z,30.95
2018-08-10T13:52:09.205Z,31.18
2018-08-10T13:54:37.805Z,30.61
2018-08-10T13:57:06.265Z,31.04
2018-08-10T13:59:34.854Z,30.76
2018-08-10T14:02:03.633Z,31.57
2018-08-10T14:04:32.243Z,32.38
2018-08-10T14:07:00.711Z,32.01
2018-08-10T14:09:29.161Z,31.48
2018-08-10T14:11:57.660Z,31.82
2018-08-10T14:14:26.136Z,31.66
2018-08-10T14:16:54.655Z,31.06
2018-08-10T14:19:23.097Z,31.71
2018-08-10T14:21:51.589Z,31.60
2018-08-10T14:24:20.119Z,31.45
2018-08-10T14:26:48.611Z,30.46
2018-08-10T14:29:17.114Z,31.21
2018-08-10T14:31:45.532Z,31.21
2018-08-10T14:34:13.947Z,30.84
2018-08-10T14:36:42.433Z,31.20
2018-08-10T14:39:12.302Z,30.54
2018-08-10T14:41:41.133Z,31.13
2018-08-10T14:44:10.185Z,30.64
2018-08-10T14:46:38.680Z,31.73
2018-08-10T14:49:08.006Z,30.54
2018-08-10T14:51:36.536Z,32.52
2018-08-10T14:54:05.224Z,32.00
2018-08-10T14:56:33.744Z,31.98
2018-08-10T14:59:02.196Z,31.90
2018-08-10T15:01:30.822Z,31.87
2018-08-10T15:03:59.337Z,33.25
2018-08-10T15:06:27.833Z,33.52
2018-08-10T15:08:56.329Z,33.79
2018-08-10T15:11:24.849Z,34.28
2018-08-10T15:13:53.291Z,32.73
2018-08-10T15:16:21.819Z,32.61
2018-08-10T15:18:50.295Z,32.55
2018-08-10T15:21:18.793Z,31.92
2018-08-10T15:23:47.331Z,32.51
2018-08-10T15:26:16.384Z,32.04
2018-08-10T15:28:44.831Z,31.59
2018-08-10T15:31:13.270Z,31.48
2018-08-10T15:33:41.701Z,31.20
2018-08-10T15:36:10.200Z,30.48
2018-08-10T15:38:38.781Z,32.20
2018-08-10T15:41:09.086Z,32.37
2018-08-10T15:43:37.584Z,32.26
2018-08-10T15:46:05.980Z,32.69
2018-08-10T15:48:34.452Z,32.73
2018-08-10T15:51:02.940Z,31.80
2018-08-10T15:53:31.426Z,32.87
2018-08-10T15:55:59.987Z,32.27
2018-08-10T15:58:28.359Z,32.06
2018-08-10T16:00:56.854Z,31.84
2018-08-10T16:03:25.372Z,32.32
2018-08-10T16:05:54.080Z,32.96
2018-08-10T16:08:22.571Z,32.05
2018-08-10T16:10:51.000Z,31.74
2018-08-10T16:13:19.481Z,32.91
2018-08-10T16:15:47.916Z,29.85
2018-08-10T16:18:16.344Z,31.15
2018-08-10T16:20:44.817Z,32.00
2018-08-10T16:23:13.241Z,32.90
2018-08-10T16:25:41.657Z,31.24
2018-08-10T16:28:10.240Z,31.21
2018-08-10T16:30:38.652Z,29.00
2018-08-10T16:33:07.133Z,30.73
2018-08-10T16:35:36.487Z,30.89
2018-08-10T16:38:04.890Z,30.31
2018-08-10T16:40:33.360Z,30.09
2018-08-10T16:43:01.773Z,30.47
2018-08-10T16:45:30.318Z,31.44
2018-08-10T16:47:58.785Z,31.46
2018-08-10T16:50:27.225Z,30.37
2018-08-10T16:52:55.743Z,29.91
2018-08-10T16:55:24.211Z,29.70
2018-08-10T16:57:52.620Z,31.40
2018-08-10T17:00:21.891Z,29.22
2018-08-10T17:02:50.413Z,30.56
2018-08-10T17:05:18.956Z,31.79
2018-08-10T17:07:47.341Z,31.05
2018-08-10T17:10:15.736Z,30.43
2018-08-10T17:12:45.225Z,31.21
2018-08-10T17:15:15.388Z,30.80
2018-08-10T17:17:44.652Z,30.78
2018-08-10T17:20:13.570Z,30.90
2018-08-10T17:22:42.736Z,32.02
2018-08-10T17:25:12.628Z,32.40
2018-08-10T17:27:41.071Z,33.33
2018-08-10T17:30:11.910Z,33.10
2018-08-10T17:32:40.524Z,34.06
2018-08-10T17:35:10.699Z,34.36
2018-08-10T17:37:39.302Z,33.91
2018-08-10T17:40:08.598Z,32.86
2018-08-10T17:42:37.393Z,33.28
2018-08-10T17:45:08.564Z,33.82
2018-08-10T17:47:37.040Z,36.02
2018-08-10T17:50:11.005Z,34.17
2018-08-10T17:52:42.107Z,34.59
2018-08-10T17:55:12.001Z,34.11
2018-08-10T17:57:41.253Z,33.68
2018-08-10T18:00:13.500Z,35.22
2018-08-10T18:02:42.020Z,34.32
2018-08-10T18:05:12.543Z,35.93
2018-08-10T18:07:41.320Z,35.06
2018-08-10T18:10:10.794Z,35.02
2018-08-10T18:12:40.308Z,35.19
2018-08-10T18:15:11.124Z,35.28
2018-08-10T18:17:40.447Z,35.97
2018-08-10T18:20:11.800Z,36.43
2018-08-10T18:22:40.367Z,36.16
2018-08-10T18:25:10.497Z,35.24
2018-08-10T18:27:39.433Z,36.34
2018-08-10T18:30:11.005Z,36.36
2018-08-10T18:32:39.853Z,37.35
2018-08-10T18:35:09.332Z,37.54
2018-08-10T18:37:38.433Z,37.40
2018-08-10T18:40:08.004Z,37.32
2018-08-10T18:42:36.459Z,36.85
2018-08-10T18:45:05.841Z,37.30
2018-08-10T18:47:34.366Z,38.28
2018-08-10T18:50:03.013Z,37.59
2018-08-10T18:52:31.483Z,38.17
2018-08-10T18:54:59.925Z,38.13
2018-08-10T18:57:28.347Z,38.37
2018-08-10T18:59:56.878Z,38.95
2018-08-10T19:02:25.390Z,39.77
2018-08-10T19:04:53.979Z,40.31
2018-08-10T19:07:22.443Z,39.89
2018-08-10T19:09:50.928Z,40.21
2018-08-10T19:12:20.199Z,40.91
2018-08-10T19:14:48.648Z,40.80
2018-08-10T19:17:17.185Z,40.80
2018-08-10T19:19:45.699Z,40.52
2018-08-10T19:22:14.280Z,41.26
2018-08-10T19:24:42.753Z,41.00
2018-08-10T19:27:11.197Z,41.36
2018-08-10T19:29:39.661Z,41.31
2018-08-10T19:32:08.124Z,41.42
2018-08-10T19:34:38.752Z,41.29
2018-08-10T19:37:07.214Z,42.37
2018-08-10T19:39:35.758Z,41.67
2018-08-10T19:42:04.893Z,41.51
2018-08-10T19:44:33.331Z,41.71
2018-08-10T19:47:01.771Z,40.86
2018-08-10T19:49:30.243Z,41.90
2018-08-10T19:51:58.753Z,40.55
2018-08-10T19:54:27.180Z,40.58
2018-08-10T19:56:55.626Z,40.90
2018-08-10T19:59:24.159Z,41.90
2018-08-10T20:01:52.582Z,42.63
2018-08-10T20:04:21.081Z,42.51
2018-08-10T20:06:49.516Z,42.52
2018-08-10T20:09:18.000Z,42.89
2018-08-10T20:11:46.438Z,42.36
2018-08-10T20:14:14.928Z,42.60
2018-08-10T20:16:43.414Z,42.83
2018-08-10T20:19:11.893Z,44.30
2018-08-10T20:21:40.444Z,42.36
2018-08-10T20:24:08.896Z,43.58
2018-08-10T20:26:37.424Z,43.35
2018-08-10T20:29:06.079Z,43.44
2018-08-10T20:31:34.474Z,43.63
2018-08-10T20:34:02.887Z,43.03
2018-08-10T20:36:31.291Z,42.44
2018-08-10T20:38:59.715Z,43.20
2018-08-10T20:41:28.229Z,43.04
2018-08-10T20:43:56.660Z,42.84
2018-08-10T20:46:25.046Z,44.08
2018-08-10T20:48:53.511Z,42.72
2018-08-10T20:51:21.988Z,43.06
2018-08-10T20:53:50.420Z,43.21
2018-08-10T20:56:18.913Z,42.93
2018-08-10T20:58:47.356Z,41.57
2018-08-10T21:01:15.828Z,42.24
2018-08-10T21:03:44.292Z,42.20
2018-08-10T21:06:12.732Z,41.72
2018-08-10T21:08:41.259Z,43.76
2018-08-10T21:11:09.757Z,44.32
2018-08-10T21:13:38.164Z,42.66
2018-08-10T21:16:06.798Z,46.52
2018-08-10T21:18:35.250Z,46.08
2018-08-10T21:21:03.666Z,45.45
2018-08-10T21:23:32.153Z,45.56
2018-08-10T21:26:00.575Z,46.45
2018-08-10T21:28:29.871Z,43.88
2018-08-10T21:30:58.308Z,45.72
2018-08-10T21:33:26.761Z,46.52
2018-08-10T21:35:55.200Z,44.73
2018-08-10T21:38:23.670Z,46.47
2018-08-10T21:40:52.121Z,46.20
2018-08-10T21:43:20.602Z,44.20
2018-08-10T21:45:49.115Z,45.47
2018-08-10T21:48:17.611Z,46.43
2018-08-10T21:50:46.047Z,46.83
2018-08-10T21:53:14.520Z,45.92
2018-08-10T21:55:43.007Z,45.65
2018-08-10T21:58:11.453Z,45.53
2018-08-10T22:00:51.265Z,45.56
2018-08-10T22:03:21.252Z,47.46
2018-08-10T22:05:49.942Z,46.92
2018-08-10T22:08:19.479Z,47.25
2018-08-10T22:10:48.055Z,46.88
2018-08-10T22:13:21.796Z,47.38
2018-08-10T22:15:55.410Z,48.06
2018-08-10T22:18:29.032Z,47.34
2018-08-10T22:20:57.904Z,46.99
2018-08-10T22:23:27.459Z,47.18
2018-08-10T22:25:56.272Z,47.10
2018-08-10T22:28:24.765Z,47.90
2018-08-10T22:30:53.256Z,48.17
2018-08-10T22:33:21.811Z,48.07
2018-08-10T22:35:50.256Z,48.17
2018-08-10T22:38:18.645Z,48.36
2018-08-10T22:40:47.080Z,47.25
2018-08-10T22:43:15.504Z,48.72
2018-08-10T22:45:44.207Z,47.96
2018-08-10T22:48:12.723Z,49.14
2018-08-10T22:50:41.293Z,48.32
2018-08-10T22:53:09.831Z,48.84
2018-08-10T22:55:38.823Z,49.34
2018-08-10T22:58:07.233Z,48.83
2018-08-10T23:00:35.632Z,47.86
2018-08-10T23:03:04.162Z,49.15
2018-08-10T23:05:32.552Z,48.36
2018-08-10T23:08:01.130Z,48.71
2018-08-10T23:10:29.662Z,49.04
2018-08-10T23:12:58.100Z,49.19
2018-08-10T23:15:26.616Z,49.21
2018-08-10T23:17:55.010Z,48.43
2018-08-10T23:20:23.628Z,49.57
2018-08-10T23:22:52.034Z,50.44
2018-08-10T23:25:20.441Z,49.50
2018-08-10T23:27:49.837Z,49.28
2018-08-10T23:30:18.391Z,49.39
2018-08-10T23:32:46.828Z,48.93
2018-08-10T23:35:15.269Z,49.40
2018-08-10T23:37:43.807Z,48.80
2018-08-10T23:40:14.607Z,47.56
2018-08-10T23:42:43.493Z,49.19
2018-08-10T23:45:13.746Z,49.41
2018-08-10T23:47:42.845Z,49.81
2018-08-10T23:50:13.330Z,49.24
2018-08-10T23:52:42.101Z,50.07
2018-08-10T23:55:11.027Z,47.85
2018-08-10T23:57:40.639Z,49.08
